sensor_id;sensor_type;location;lat;lon;timestamp;pressure;altitude;pressure_sealevel;temperature;humidity
28630;BME280;15817;42.130;24.762;2023-07-20T00:00:14;99357.00;;;29.65;47.51
28630;BME280;15817;42.130;24.762;2023-07-20T00:02:49;99360.91;;;29.63;47.88
28630;BME280;15817;42.130;24.762;2023-07-20T00:05:18;99367.06;;;29.55;48.08
28630;BME280;15817;42.130;24.762;2023-07-20T00:07:47;99396.06;;;29.58;47.70
28630;BME280;15817;42.130;24.762;2023-07-20T00:10:13;99391.31;;;29.50;47.77
28630;BME280;15817;42.130;24.762;2023-07-20T00:12:39;99392.59;;;29.56;47.26
28630;BME280;15817;42.130;24.762;2023-07-20T00:15:08;99390.75;;;29.66;46.84
28630;BME280;15817;42.130;24.762;2023-07-20T00:17:34;99401.56;;;29.67;45.95
28630;BME280;15817;42.130;24.762;2023-07-20T00:20:02;99378.34;;;29.71;45.77
28630;BME280;15817;42.130;24.762;2023-07-20T00:22:30;99354.13;;;29.76;45.43
28630;BME280;15817;42.130;24.762;2023-07-20T00:24:56;99339.69;;;29.74;45.57
28630;BME280;15817;42.130;24.762;2023-07-20T00:27:22;99322.78;;;29.69;45.57
28630;BME280;15817;42.130;24.762;2023-07-20T00:29:48;99306.94;;;29.73;45.75
28630;BME280;15817;42.130;24.762;2023-07-20T00:32:13;99305.06;;;29.73;45.54
28630;BME280;15817;42.130;24.762;2023-07-20T00:34:39;99305.06;;;29.73;45.46
28630;BME280;15817;42.130;24.762;2023-07-20T00:37:05;99302.88;;;29.77;44.98
28630;BME280;15817;42.130;24.762;2023-07-20T00:39:31;99300.84;;;29.79;44.86
28630;BME280;15817;42.130;24.762;2023-07-20T00:41:58;99283.00;;;29.75;45.10
28630;BME280;15817;42.130;24.762;2023-07-20T00:44:24;99278.38;;;29.75;44.91
28630;BME280;15817;42.130;24.762;2023-07-20T00:46:56;99276.19;;;29.79;44.75
28630;BME280;15817;42.130;24.762;2023-07-20T00:49:25;99269.25;;;29.84;44.79
28630;BME280;15817;42.130;24.762;2023-07-20T00:51:54;99264.94;;;29.82;44.22
28630;BME280;15817;42.130;24.762;2023-07-20T00:54:23;99279.50;;;29.92;44.24
28630;BME280;15817;42.130;24.762;2023-07-20T00:56:58;99283.97;;;29.93;44.21
28630;BME280;15817;42.130;24.762;2023-07-20T00:59:25;99295.66;;;29.95;44.07
28630;BME280;15817;42.130;24.762;2023-07-20T01:01:51;99292.91;;;29.95;44.06
28630;BME280;15817;42.130;24.762;2023-07-20T01:04:17;99295.28;;;30.00;43.93
28630;BME280;15817;42.130;24.762;2023-07-20T01:07:17;99295.56;;;29.97;43.94
28630;BME280;15817;42.130;24.762;2023-07-20T01:10:02;99284.25;;;29.90;44.39
28630;BME280;15817;42.130;24.762;2023-07-20T01:12:52;99281.66;;;29.88;44.18
28630;BME280;15817;42.130;24.762;2023-07-20T01:15:19;99275.75;;;29.83;44.32
28630;BME280;15817;42.130;24.762;2023-07-20T01:17:53;99269.69;;;29.80;44.57
28630;BME280;15817;42.130;24.762;2023-07-20T01:20:21;99264.50;;;29.77;44.62
28630;BME280;15817;42.130;24.762;2023-07-20T01:28:53;99255.00;;;29.71;45.01
28630;BME280;15817;42.130;24.762;2023-07-20T01:31:27;99248.50;;;29.72;45.08
28630;BME280;15817;42.130;24.762;2023-07-20T01:34:00;99233.78;;;29.64;45.04
28630;BME280;15817;42.130;24.762;2023-07-20T01:36:33;99237.09;;;29.67;45.31
28630;BME280;15817;42.130;24.762;2023-07-20T01:39:00;99236.53;;;29.64;44.98
28630;BME280;15817;42.130;24.762;2023-07-20T01:41:29;99247.91;;;29.69;45.02
28630;BME280;15817;42.130;24.762;2023-07-20T01:44:04;99232.78;;;29.65;45.37
28630;BME280;15817;42.130;24.762;2023-07-20T01:46:30;99249.94;;;29.67;45.08
28630;BME280;15817;42.130;24.762;2023-07-20T01:48:57;99247.19;;;29.67;45.46
28630;BME280;15817;42.130;24.762;2023-07-20T01:51:23;99239.56;;;29.61;45.49
28630;BME280;15817;42.130;24.762;2023-07-20T01:53:51;99241.72;;;29.57;45.69
28630;BME280;15817;42.130;24.762;2023-07-20T01:56:17;99239.97;;;29.56;45.58
28630;BME280;15817;42.130;24.762;2023-07-20T01:58:46;99233.94;;;29.52;45.83
28630;BME280;15817;42.130;24.762;2023-07-20T02:01:12;99246.47;;;29.55;45.95
28630;BME280;15817;42.130;24.762;2023-07-20T02:03:38;99238.25;;;29.45;45.84
28630;BME280;15817;42.130;24.762;2023-07-20T02:06:04;99243.59;;;29.47;45.90
28630;BME280;15817;42.130;24.762;2023-07-20T02:08:30;99244.59;;;29.46;46.21
28630;BME280;15817;42.130;24.762;2023-07-20T02:10:56;99241.59;;;29.39;46.40
28630;BME280;15817;42.130;24.762;2023-07-20T02:13:22;99237.09;;;29.38;46.62
28630;BME280;15817;42.130;24.762;2023-07-20T02:15:48;99245.19;;;29.40;46.38
28630;BME280;15817;42.130;24.762;2023-07-20T02:18:15;99244.56;;;29.36;46.25
28630;BME280;15817;42.130;24.762;2023-07-20T02:20:41;99253.78;;;29.35;46.38
28630;BME280;15817;42.130;24.762;2023-07-20T02:23:10;99250.19;;;29.35;46.60
28630;BME280;15817;42.130;24.762;2023-07-20T02:25:37;99256.25;;;29.29;47.07
28630;BME280;15817;42.130;24.762;2023-07-20T02:28:04;99251.63;;;29.29;47.03
28630;BME280;15817;42.130;24.762;2023-07-20T02:30:29;99254.66;;;29.36;47.01
28630;BME280;15817;42.130;24.762;2023-07-20T02:32:57;99255.06;;;29.31;46.53
28630;BME280;15817;42.130;24.762;2023-07-20T02:35:24;99261.88;;;29.27;46.80
28630;BME280;15817;42.130;24.762;2023-07-20T02:37:53;99243.69;;;29.26;47.03
28630;BME280;15817;42.130;24.762;2023-07-20T02:40:30;99245.84;;;29.23;47.25
28630;BME280;15817;42.130;24.762;2023-07-20T02:42:57;99245.13;;;29.21;47.59
28630;BME280;15817;42.130;24.762;2023-07-20T02:45:23;99240.34;;;29.13;47.68
28630;BME280;15817;42.130;24.762;2023-07-20T02:47:49;99243.84;;;29.15;47.68
28630;BME280;15817;42.130;24.762;2023-07-20T02:50:15;99260.81;;;29.09;47.86
28630;BME280;15817;42.130;24.762;2023-07-20T02:52:40;99251.16;;;28.95;47.81
28630;BME280;15817;42.130;24.762;2023-07-20T02:55:07;99250.84;;;28.89;48.10
28630;BME280;15817;42.130;24.762;2023-07-20T02:57:33;99252.09;;;28.85;48.06
28630;BME280;15817;42.130;24.762;2023-07-20T02:59:59;99236.53;;;28.85;48.19
28630;BME280;15817;42.130;24.762;2023-07-20T03:02:25;99242.03;;;28.85;48.49
28630;BME280;15817;42.130;24.762;2023-07-20T03:04:50;99236.25;;;28.78;48.32
28630;BME280;15817;42.130;24.762;2023-07-20T03:07:16;99244.69;;;28.75;48.36
28630;BME280;15817;42.130;24.762;2023-07-20T03:09:42;99231.59;;;28.69;48.69
28630;BME280;15817;42.130;24.762;2023-07-20T03:12:09;99240.81;;;28.68;48.57
28630;BME280;15817;42.130;24.762;2023-07-20T03:14:35;99244.53;;;28.67;48.52
28630;BME280;15817;42.130;24.762;2023-07-20T03:17:00;99242.25;;;28.72;48.21
28630;BME280;15817;42.130;24.762;2023-07-20T03:19:27;99237.59;;;28.63;48.79
28630;BME280;15817;42.130;24.762;2023-07-20T03:21:53;99237.19;;;28.68;48.54
28630;BME280;15817;42.130;24.762;2023-07-20T03:24:19;99237.47;;;28.65;48.90
28630;BME280;15817;42.130;24.762;2023-07-20T03:26:46;99239.34;;;28.64;49.13
28630;BME280;15817;42.130;24.762;2023-07-20T03:29:12;99238.59;;;28.62;48.93
28630;BME280;15817;42.130;24.762;2023-07-20T03:31:38;99240.47;;;28.62;49.15
28630;BME280;15817;42.130;24.762;2023-07-20T03:34:07;99237.16;;;28.58;49.57
28630;BME280;15817;42.130;24.762;2023-07-20T03:36:35;99232.25;;;28.62;49.21
28630;BME280;15817;42.130;24.762;2023-07-20T03:39:01;99221.31;;;28.62;49.57
28630;BME280;15817;42.130;24.762;2023-07-20T03:41:29;99223.91;;;28.63;49.70
28630;BME280;15817;42.130;24.762;2023-07-20T03:44:35;99209.81;;;28.58;49.53
28630;BME280;15817;42.130;24.762;2023-07-20T03:47:25;99219.31;;;28.64;49.73
28630;BME280;15817;42.130;24.762;2023-07-20T03:49:59;99208.06;;;28.57;50.03
28630;BME280;15817;42.130;24.762;2023-07-20T03:52:34;99216.72;;;28.62;49.93
28630;BME280;15817;42.130;24.762;2023-07-20T03:55:04;99207.81;;;28.60;49.99
28630;BME280;15817;42.130;24.762;2023-07-20T03:57:58;99212.97;;;28.63;50.54
28630;BME280;15817;42.130;24.762;2023-07-20T04:00:51;99214.28;;;28.59;51.08
28630;BME280;15817;42.130;24.762;2023-07-20T04:04:01;99221.19;;;28.63;51.17
28630;BME280;15817;42.130;24.762;2023-07-20T04:07:03;99219.75;;;28.59;50.70
28630;BME280;15817;42.130;24.762;2023-07-20T04:09:35;99228.53;;;28.63;51.05
28630;BME280;15817;42.130;24.762;2023-07-20T04:12:00;99227.09;;;28.59;51.27
28630;BME280;15817;42.130;24.762;2023-07-20T04:14:26;99229.09;;;28.57;51.19
28630;BME280;15817;42.130;24.762;2023-07-20T04:16:52;99234.69;;;28.55;51.22
28630;BME280;15817;42.130;24.762;2023-07-20T04:19:19;99236.16;;;28.59;51.68
28630;BME280;15817;42.130;24.762;2023-07-20T04:21:49;99230.69;;;28.59;51.62
28630;BME280;15817;42.130;24.762;2023-07-20T04:24:15;99235.59;;;28.65;51.15
28630;BME280;15817;42.130;24.762;2023-07-20T04:26:45;99243.13;;;28.73;50.57
28630;BME280;15817;42.130;24.762;2023-07-20T04:29:10;99245.72;;;28.74;50.57
28630;BME280;15817;42.130;24.762;2023-07-20T04:31:40;99242.59;;;28.79;50.73
28630;BME280;15817;42.130;24.762;2023-07-20T04:34:08;99246.06;;;28.81;51.03
28630;BME280;15817;42.130;24.762;2023-07-20T04:36:35;99255.72;;;28.85;50.79
28630;BME280;15817;42.130;24.762;2023-07-20T04:39:03;99241.03;;;28.86;50.99
28630;BME280;15817;42.130;24.762;2023-07-20T04:41:36;99246.50;;;28.86;50.92
28630;BME280;15817;42.130;24.762;2023-07-20T04:44:02;99245.63;;;28.86;51.03
28630;BME280;15817;42.130;24.762;2023-07-20T04:46:29;99252.09;;;28.85;50.95
28630;BME280;15817;42.130;24.762;2023-07-20T04:49:01;99247.94;;;28.80;51.21
28630;BME280;15817;42.130;24.762;2023-07-20T04:51:31;99250.31;;;28.74;51.16
28630;BME280;15817;42.130;24.762;2023-07-20T04:53:57;99261.44;;;28.72;51.15
28630;BME280;15817;42.130;24.762;2023-07-20T04:56:31;99258.09;;;28.69;50.70
28630;BME280;15817;42.130;24.762;2023-07-20T04:59:01;99270.66;;;28.71;51.79
28630;BME280;15817;42.130;24.762;2023-07-20T05:01:29;99260.84;;;28.69;51.90
28630;BME280;15817;42.130;24.762;2023-07-20T05:04:02;99270.78;;;28.70;51.68
28630;BME280;15817;42.130;24.762;2023-07-20T05:06:44;99265.72;;;28.65;51.83
28630;BME280;15817;42.130;24.762;2023-07-20T05:09:30;99260.81;;;28.59;51.98
28630;BME280;15817;42.130;24.762;2023-07-20T05:12:08;99270.59;;;28.62;52.68
28630;BME280;15817;42.130;24.762;2023-07-20T05:14:35;99266.84;;;28.63;52.13
28630;BME280;15817;42.130;24.762;2023-07-20T05:17:03;99260.06;;;28.57;52.04
28630;BME280;15817;42.130;24.762;2023-07-20T05:19:39;99257.31;;;28.57;52.34
28630;BME280;15817;42.130;24.762;2023-07-20T05:22:13;99248.66;;;28.52;52.08
28630;BME280;15817;42.130;24.762;2023-07-20T05:24:40;99251.00;;;28.57;52.11
28630;BME280;15817;42.130;24.762;2023-07-20T05:27:06;99247.25;;;28.58;52.60
28630;BME280;15817;42.130;24.762;2023-07-20T05:29:52;99255.47;;;28.58;52.55
28630;BME280;15817;42.130;24.762;2023-07-20T05:32:18;99257.75;;;28.62;52.71
28630;BME280;15817;42.130;24.762;2023-07-20T05:34:44;99250.84;;;28.58;52.40
28630;BME280;15817;42.130;24.762;2023-07-20T05:37:13;99247.25;;;28.58;52.88
28630;BME280;15817;42.130;24.762;2023-07-20T05:39:39;99242.38;;;28.61;52.31
28630;BME280;15817;42.130;24.762;2023-07-20T05:42:08;99253.03;;;28.64;52.16
28630;BME280;15817;42.130;24.762;2023-07-20T05:44:34;99248.75;;;28.71;52.03
28630;BME280;15817;42.130;24.762;2023-07-20T05:47:02;99245.78;;;28.84;53.04
28630;BME280;15817;42.130;24.762;2023-07-20T05:49:28;99248.56;;;28.94;52.88
28630;BME280;15817;42.130;24.762;2023-07-20T05:51:57;99243.38;;;29.00;51.63
28630;BME280;15817;42.130;24.762;2023-07-20T05:54:30;99234.44;;;29.08;51.60
28630;BME280;15817;42.130;24.762;2023-07-20T05:56:58;99224.34;;;29.08;52.15
28630;BME280;15817;42.130;24.762;2023-07-20T05:59:24;99224.34;;;29.08;52.01
28630;BME280;15817;42.130;24.762;2023-07-20T06:01:50;99224.50;;;29.07;51.61
28630;BME280;15817;42.130;24.762;2023-07-20T06:04:19;99225.50;;;29.06;51.56
28630;BME280;15817;42.130;24.762;2023-07-20T06:06:45;99223.06;;;29.12;51.57
28630;BME280;15817;42.130;24.762;2023-07-20T06:09:13;99216.72;;;29.12;51.58
28630;BME280;15817;42.130;24.762;2023-07-20T06:11:45;99212.53;;;29.08;52.07
28630;BME280;15817;42.130;24.762;2023-07-20T06:14:13;99209.34;;;29.03;50.52
28630;BME280;15817;42.130;24.762;2023-07-20T06:16:40;99213.25;;;29.00;50.52
28630;BME280;15817;42.130;24.762;2023-07-20T06:19:06;99205.03;;;29.00;51.41
28630;BME280;15817;42.130;24.762;2023-07-20T06:22:09;99211.81;;;29.06;50.14
28630;BME280;15817;42.130;24.762;2023-07-20T06:24:38;99202.88;;;29.04;50.27
28630;BME280;15817;42.130;24.762;2023-07-20T06:27:04;99204.63;;;29.05;50.40
28630;BME280;15817;42.130;24.762;2023-07-20T06:30:08;99198.28;;;29.04;49.67
28630;BME280;15817;42.130;24.762;2023-07-20T06:36:41;99201.28;;;29.11;49.91
28630;BME280;15817;42.130;24.762;2023-07-20T06:42:55;99204.34;;;29.17;50.74
28630;BME280;15817;42.130;24.762;2023-07-20T06:45:22;99188.91;;;29.16;50.15
28630;BME280;15817;42.130;24.762;2023-07-20T06:47:56;99184.72;;;29.22;49.67
28630;BME280;15817;42.130;24.762;2023-07-20T06:50:25;99196.97;;;29.28;49.38
28630;BME280;15817;42.130;24.762;2023-07-20T06:52:50;99189.78;;;29.27;48.38
28630;BME280;15817;42.130;24.762;2023-07-20T06:55:17;99194.97;;;29.30;48.22
28630;BME280;15817;42.130;24.762;2023-07-20T06:57:45;99200.13;;;29.33;48.83
28630;BME280;15817;42.130;24.762;2023-07-20T07:00:12;99197.97;;;29.36;48.88
28630;BME280;15817;42.130;24.762;2023-07-20T07:02:40;99194.69;;;29.42;48.47
28630;BME280;15817;42.130;24.762;2023-07-20T07:05:06;99192.66;;;29.44;48.06
28630;BME280;15817;42.130;24.762;2023-07-20T07:13:11;99190.34;;;29.59;48.52
28630;BME280;15817;42.130;24.762;2023-07-20T07:15:39;99193.53;;;29.64;48.44
28630;BME280;15817;42.130;24.762;2023-07-20T07:18:14;99194.41;;;29.65;47.98
28630;BME280;15817;42.130;24.762;2023-07-20T07:20:40;99181.97;;;29.70;47.82
28630;BME280;15817;42.130;24.762;2023-07-20T07:23:09;99187.03;;;29.75;47.18
28630;BME280;15817;42.130;24.762;2023-07-20T07:25:35;99183.28;;;29.76;47.12
28630;BME280;15817;42.130;24.762;2023-07-20T07:28:06;99185.84;;;29.77;47.70
28630;BME280;15817;42.130;24.762;2023-07-20T07:30:32;99187.44;;;29.80;48.83
28630;BME280;15817;42.130;24.762;2023-07-20T07:33:00;99180.06;;;29.80;48.20
28630;BME280;15817;42.130;24.762;2023-07-20T07:35:39;99192.59;;;29.93;47.45
28630;BME280;15817;42.130;24.762;2023-07-20T07:38:07;99175.13;;;29.94;47.13
28630;BME280;15817;42.130;24.762;2023-07-20T07:40:33;99179.03;;;30.01;46.95
28630;BME280;15817;42.130;24.762;2023-07-20T07:42:59;99173.72;;;29.99;47.51
28630;BME280;15817;42.130;24.762;2023-07-20T07:45:34;99177.59;;;30.06;46.91
28630;BME280;15817;42.130;24.762;2023-07-20T07:48:01;99180.59;;;30.13;46.74
28630;BME280;15817;42.130;24.762;2023-07-20T07:50:46;99179.28;;;30.17;46.08
28630;BME280;15817;42.130;24.762;2023-07-20T07:53:11;99174.22;;;30.22;46.06
28630;BME280;15817;42.130;24.762;2023-07-20T07:55:43;99182.41;;;30.32;46.69
28630;BME280;15817;42.130;24.762;2023-07-20T07:58:12;99186.25;;;30.39;45.45
28630;BME280;15817;42.130;24.762;2023-07-20T08:00:40;99176.56;;;30.44;45.52
28630;BME280;15817;42.130;24.762;2023-07-20T08:05:57;99174.31;;;30.67;44.92
28630;BME280;15817;42.130;24.762;2023-07-20T08:08:27;99167.59;;;30.79;44.38
28630;BME280;15817;42.130;24.762;2023-07-20T08:10:53;99170.91;;;31.01;43.29
28630;BME280;15817;42.130;24.762;2023-07-20T08:13:20;99168.34;;;31.17;44.02
28630;BME280;15817;42.130;24.762;2023-07-20T08:15:53;99168.91;;;31.38;42.94
28630;BME280;15817;42.130;24.762;2023-07-20T08:18:25;99174.91;;;31.59;42.06
28630;BME280;15817;42.130;24.762;2023-07-20T08:21:02;99175.16;;;31.66;41.26
28630;BME280;15817;42.130;24.762;2023-07-20T08:23:39;99173.63;;;31.89;41.39
28630;BME280;15817;42.130;24.762;2023-07-20T08:26:07;99181.94;;;32.23;40.60
28630;BME280;15817;42.130;24.762;2023-07-20T08:28:35;99172.78;;;32.49;40.42
28630;BME280;15817;42.130;24.762;2023-07-20T08:31:05;99193.34;;;32.70;40.50
28630;BME280;15817;42.130;24.762;2023-07-20T08:33:34;99179.13;;;32.83;40.12
28630;BME280;15817;42.130;24.762;2023-07-20T08:36:01;99177.63;;;32.97;39.50
28630;BME280;15817;42.130;24.762;2023-07-20T08:38:29;99193.50;;;33.11;40.66
28630;BME280;15817;42.130;24.762;2023-07-20T08:40:55;99182.00;;;33.24;39.56
28630;BME280;15817;42.130;24.762;2023-07-20T08:43:22;99184.78;;;33.40;39.77
28630;BME280;15817;42.130;24.762;2023-07-20T08:45:58;99181.19;;;33.56;38.65
28630;BME280;15817;42.130;24.762;2023-07-20T08:48:35;99181.00;;;33.82;37.62
28630;BME280;15817;42.130;24.762;2023-07-20T08:51:02;99181.50;;;33.93;37.79
28630;BME280;15817;42.130;24.762;2023-07-20T08:53:38;99169.94;;;34.14;37.44
28630;BME280;15817;42.130;24.762;2023-07-20T08:56:11;99171.28;;;34.34;37.02
28630;BME280;15817;42.130;24.762;2023-07-20T08:58:39;99173.28;;;34.48;37.25
28630;BME280;15817;42.130;24.762;2023-07-20T09:01:07;99165.09;;;34.63;36.87
28630;BME280;15817;42.130;24.762;2023-07-20T09:03:38;99157.09;;;34.84;36.48
28630;BME280;15817;42.130;24.762;2023-07-20T09:06:13;99157.03;;;34.93;36.57
28630;BME280;15817;42.130;24.762;2023-07-20T09:08:57;99150.66;;;35.15;36.80
28630;BME280;15817;42.130;24.762;2023-07-20T09:11:29;99144.22;;;35.31;35.76
28630;BME280;15817;42.130;24.762;2023-07-20T09:14:08;99143.56;;;35.43;35.23
28630;BME280;15817;42.130;24.762;2023-07-20T09:16:53;99131.75;;;35.49;35.00
28630;BME280;15817;42.130;24.762;2023-07-20T09:19:24;99135.03;;;35.68;34.66
28630;BME280;15817;42.130;24.762;2023-07-20T09:21:54;99130.75;;;35.88;35.19
28630;BME280;15817;42.130;24.762;2023-07-20T09:24:28;99131.13;;;36.00;34.45
28630;BME280;15817;42.130;24.762;2023-07-20T09:27:01;99135.59;;;36.15;34.32
28630;BME280;15817;42.130;24.762;2023-07-20T09:29:52;99122.44;;;35.88;33.75
28630;BME280;15817;42.130;24.762;2023-07-20T09:32:23;99105.59;;;35.89;34.12
28630;BME280;15817;42.130;24.762;2023-07-20T09:34:49;99100.38;;;36.24;34.57
28630;BME280;15817;42.130;24.762;2023-07-20T09:37:20;99112.22;;;36.47;33.64
28630;BME280;15817;42.130;24.762;2023-07-20T09:39:48;99102.97;;;36.55;33.22
28630;BME280;15817;42.130;24.762;2023-07-20T09:42:15;99110.97;;;36.64;33.09
28630;BME280;15817;42.130;24.762;2023-07-20T09:44:44;99098.34;;;36.77;34.16
28630;BME280;15817;42.130;24.762;2023-07-20T09:47:10;99100.84;;;36.93;33.87
28630;BME280;15817;42.130;24.762;2023-07-20T09:49:44;99096.59;;;36.90;34.07
28630;BME280;15817;42.130;24.762;2023-07-20T09:52:11;99099.09;;;37.07;33.92
28630;BME280;15817;42.130;24.762;2023-07-20T09:54:47;99096.47;;;37.20;33.69
28630;BME280;15817;42.130;24.762;2023-07-20T09:57:19;99094.56;;;37.20;33.23
28630;BME280;15817;42.130;24.762;2023-07-20T09:59:49;99088.25;;;37.26;32.75
28630;BME280;15817;42.130;24.762;2023-07-20T10:02:32;99090.31;;;37.46;33.19
28630;BME280;15817;42.130;24.762;2023-07-20T10:08:30;99072.63;;;37.75;32.05
28630;BME280;15817;42.130;24.762;2023-07-20T10:17:50;99059.97;;;37.93;31.34
28630;BME280;15817;42.130;24.762;2023-07-20T10:20:47;99052.63;;;38.14;31.69
28630;BME280;15817;42.130;24.762;2023-07-20T10:23:46;99037.47;;;38.16;31.24
28630;BME280;15817;42.130;24.762;2023-07-20T10:26:17;99048.66;;;38.29;31.38
28630;BME280;15817;42.130;24.762;2023-07-20T10:28:43;99040.53;;;38.34;31.06
28630;BME280;15817;42.130;24.762;2023-07-20T10:31:37;99035.63;;;38.36;31.33
28630;BME280;15817;42.130;24.762;2023-07-20T10:34:04;99039.56;;;38.55;30.81
28630;BME280;15817;42.130;24.762;2023-07-20T10:36:48;99036.28;;;38.45;30.56
28630;BME280;15817;42.130;24.762;2023-07-20T10:39:47;99028.44;;;38.55;30.69
28630;BME280;15817;42.130;24.762;2023-07-20T10:42:19;99017.97;;;38.57;30.66
28630;BME280;15817;42.130;24.762;2023-07-20T10:44:48;99025.91;;;38.67;29.84
28630;BME280;15817;42.130;24.762;2023-07-20T10:47:19;99022.72;;;38.63;30.05
28630;BME280;15817;42.130;24.762;2023-07-20T10:50:00;99011.59;;;38.70;30.19
28630;BME280;15817;42.130;24.762;2023-07-20T10:52:26;99018.88;;;38.78;29.70
28630;BME280;15817;42.130;24.762;2023-07-20T10:58:40;99010.56;;;38.91;30.02
28630;BME280;15817;42.130;24.762;2023-07-20T11:01:16;99012.13;;;39.00;29.42
28630;BME280;15817;42.130;24.762;2023-07-20T11:03:49;99002.44;;;38.76;29.34
28630;BME280;15817;42.130;24.762;2023-07-20T11:09:04;98992.56;;;38.73;28.81
28630;BME280;15817;42.130;24.762;2023-07-20T11:11:34;98990.69;;;38.87;29.08
28630;BME280;15817;42.130;24.762;2023-07-20T11:14:19;98988.16;;;38.99;28.34
28630;BME280;15817;42.130;24.762;2023-07-20T11:16:53;99003.56;;;39.08;27.53
28630;BME280;15817;42.130;24.762;2023-07-20T11:19:55;98996.69;;;39.04;27.41
28630;BME280;15817;42.130;24.762;2023-07-20T11:22:28;98994.34;;;39.14;27.13
28630;BME280;15817;42.130;24.762;2023-07-20T11:24:56;98989.66;;;39.21;26.58
28630;BME280;15817;42.130;24.762;2023-07-20T11:27:26;98987.94;;;39.20;27.05
28630;BME280;15817;42.130;24.762;2023-07-20T11:29:52;98983.66;;;39.31;27.19
28630;BME280;15817;42.130;24.762;2023-07-20T11:32:22;98979.13;;;39.36;26.94
28630;BME280;15817;42.130;24.762;2023-07-20T11:35:20;98971.25;;;39.33;26.98
28630;BME280;15817;42.130;24.762;2023-07-20T11:37:57;98971.44;;;39.38;27.37
28630;BME280;15817;42.130;24.762;2023-07-20T11:40:29;98960.53;;;39.43;26.70
28630;BME280;15817;42.130;24.762;2023-07-20T11:42:56;98959.25;;;39.46;26.73
28630;BME280;15817;42.130;24.762;2023-07-20T11:45:21;98963.28;;;39.37;26.77
28630;BME280;15817;42.130;24.762;2023-07-20T11:47:50;98959.44;;;39.38;27.01
28630;BME280;15817;42.130;24.762;2023-07-20T11:50:16;98953.06;;;39.44;26.95
28630;BME280;15817;42.130;24.762;2023-07-20T11:52:55;98966.31;;;39.49;26.87
28630;BME280;15817;42.130;24.762;2023-07-20T11:55:21;98956.47;;;39.46;27.17
28630;BME280;15817;42.130;24.762;2023-07-20T11:58:04;98952.16;;;39.50;27.05
28630;BME280;15817;42.130;24.762;2023-07-20T12:00:35;98948.13;;;39.46;26.80
28630;BME280;15817;42.130;24.762;2023-07-20T12:03:05;98950.88;;;39.39;26.88
28630;BME280;15817;42.130;24.762;2023-07-20T12:05:45;98941.28;;;39.42;27.04
28630;BME280;15817;42.130;24.762;2023-07-20T12:08:34;98944.69;;;39.31;27.17
28630;BME280;15817;42.130;24.762;2023-07-20T12:11:10;98939.94;;;39.38;27.18
28630;BME280;15817;42.130;24.762;2023-07-20T12:13:47;98919.03;;;39.09;27.20
28630;BME280;15817;42.130;24.762;2023-07-20T12:16:19;98919.88;;;39.03;27.58
28630;BME280;15817;42.130;24.762;2023-07-20T12:18:48;98914.91;;;39.25;27.31
28630;BME280;15817;42.130;24.762;2023-07-20T12:21:16;98907.88;;;39.29;27.78
28630;BME280;15817;42.130;24.762;2023-07-20T12:23:52;98902.06;;;39.24;27.37
28630;BME280;15817;42.130;24.762;2023-07-20T12:26:19;98896.69;;;39.35;27.87
28630;BME280;15817;42.130;24.762;2023-07-20T12:28:56;98892.25;;;39.34;27.56
28630;BME280;15817;42.130;24.762;2023-07-20T12:31:22;98887.97;;;39.45;27.32
28630;BME280;15817;42.130;24.762;2023-07-20T12:34:10;98878.75;;;39.44;27.46
28630;BME280;15817;42.130;24.762;2023-07-20T12:37:04;98855.59;;;39.37;27.21
28630;BME280;15817;42.130;24.762;2023-07-20T12:39:48;98861.38;;;39.36;27.67
28630;BME280;15817;42.130;24.762;2023-07-20T12:42:48;98852.41;;;39.34;27.27
28630;BME280;15817;42.130;24.762;2023-07-20T12:45:19;98853.09;;;39.16;27.50
28630;BME280;15817;42.130;24.762;2023-07-20T12:47:48;98857.38;;;39.19;27.74
28630;BME280;15817;42.130;24.762;2023-07-20T12:50:25;98856.31;;;39.20;27.84
28630;BME280;15817;42.130;24.762;2023-07-20T12:52:57;98851.56;;;39.27;27.60
28630;BME280;15817;42.130;24.762;2023-07-20T12:56:03;98859.91;;;39.27;27.82
28630;BME280;15817;42.130;24.762;2023-07-20T12:59:14;98850.34;;;39.09;27.76
28630;BME280;15817;42.130;24.762;2023-07-20T13:02:21;98864.25;;;39.03;27.70
28630;BME280;15817;42.130;24.762;2023-07-20T13:08:55;98878.16;;;38.83;27.92
28630;BME280;15817;42.130;24.762;2023-07-20T13:11:28;98868.72;;;38.84;27.98
28630;BME280;15817;42.130;24.762;2023-07-20T13:13:57;98871.94;;;38.94;27.97
28630;BME280;15817;42.130;24.762;2023-07-20T13:16:34;98878.34;;;38.82;28.04
28630;BME280;15817;42.130;24.762;2023-07-20T13:19:04;98874.50;;;38.83;28.23
28630;BME280;15817;42.130;24.762;2023-07-20T13:24:26;98862.28;;;38.90;27.62
28630;BME280;15817;42.130;24.762;2023-07-20T13:26:55;98874.50;;;38.96;27.59
28630;BME280;15817;42.130;24.762;2023-07-20T13:29:27;98867.84;;;38.90;27.65
28630;BME280;15817;42.130;24.762;2023-07-20T13:31:55;98875.16;;;38.85;27.89
28630;BME280;15817;42.130;24.762;2023-07-20T13:34:32;98873.22;;;38.79;27.83
28630;BME280;15817;42.130;24.762;2023-07-20T13:37:02;98864.25;;;38.77;28.04
28630;BME280;15817;42.130;24.762;2023-07-20T13:39:41;98874.06;;;38.79;27.95
28630;BME280;15817;42.130;24.762;2023-07-20T13:42:09;98855.06;;;38.76;28.01
28630;BME280;15817;42.130;24.762;2023-07-20T13:44:46;98857.84;;;38.76;28.20
28630;BME280;15817;42.130;24.762;2023-07-20T13:47:26;98864.25;;;38.77;28.19
28630;BME280;15817;42.130;24.762;2023-07-20T13:49:59;98862.31;;;38.77;28.14
28630;BME280;15817;42.130;24.762;2023-07-20T13:52:30;98849.72;;;38.61;28.61
28630;BME280;15817;42.130;24.762;2023-07-20T13:55:10;98850.78;;;38.60;28.42
28630;BME280;15817;42.130;24.762;2023-07-20T13:57:40;98859.09;;;38.67;28.00
28630;BME280;15817;42.130;24.762;2023-07-20T14:00:14;98862.53;;;38.62;28.04